Time;durP1;ratioP1;P1;durP2;ratioP2;P2;SDS_P1;SDS_P2;PMS_P1;PMS_P2;Temp;Humidity;BMP_temperature;BMP_pressure;BME280_temperature;BME280_humidity;BME280_pressure;Samples;Min_cycle;Max_cycle;Signal;HPM_P1;HPM_P2
2022/02/21 00:00:11;;;;;;;34.17;24.08;;;;;;;;;;5038216;28;20136;-88
2022/02/21 00:02:39;;;;;;;32.50;24.25;;;;;;;;;;5038735;28;20025;-89
2022/02/21 00:05:06;;;;;;;33.30;24.73;;;;;;;;;;5038596;28;20025;-88
2022/02/21 00:07:32;;;;;;;35.08;24.95;;;;;;;;;;5038161;28;20049;-87
2022/02/21 00:09:58;;;;;;;34.92;24.42;;;;;;;;;;5037392;28;20083;-88
2022/02/21 00:12:24;;;;;;;37.92;24.35;;;;;;;;;;5037587;28;20033;-88
2022/02/21 00:14:50;;;;;;;32.08;24.67;;;;;;;;;;5038224;28;20427;-87
2022/02/21 00:17:16;;;;;;;36.53;25.35;;;;;;;;;;5020903;28;20477;-88
2022/02/21 00:19:42;;;;;;;36.53;26.10;;;;;;;;;;5038379;28;20024;-87
2022/02/21 00:22:08;;;;;;;58.72;34.05;;;;;;;;;;5038333;28;20022;-88
2022/02/21 00:24:34;;;;;;;41.40;27.83;;;;;;;;;;5038127;28;20293;-88
2022/02/21 00:27:00;;;;;;;37.17;25.10;;;;;;;;;;5038048;28;20359;-87
2022/02/21 00:30:04;;;;;;;36.58;25.92;;;;;;;;;;5038177;28;20041;-88
2022/02/21 00:32:30;;;;;;;36.35;24.95;;;;;;;;;;5036861;28;20025;-85
2022/02/21 00:34:56;;;;;;;36.60;25.02;;;;;;;;;;5037926;28;20296;-85
2022/02/21 00:37:22;;;;;;;37.70;25.83;;;;;;;;;;5036871;28;20025;-86
2022/02/21 00:39:48;;;;;;;33.67;24.98;;;;;;;;;;5038013;28;20029;-86
2022/02/21 00:42:16;;;;;;;34.17;24.73;;;;;;;;;;5038054;28;20018;-86
2022/02/21 00:44:42;;;;;;;38.65;25.40;;;;;;;;;;5036961;28;20013;-86
2022/02/21 00:47:09;;;;;;;39.30;25.77;;;;;;;;;;5036853;28;20454;-86
2022/02/21 00:49:35;;;;;;;34.13;23.75;;;;;;;;;;5037970;28;20200;-85
2022/02/21 00:52:03;;;;;;;33.05;24.65;;;;;;;;;;5036742;28;20132;-85
2022/02/21 00:54:29;;;;;;;38.55;25.63;;;;;;;;;;5037936;28;20036;-85
2022/02/21 00:56:55;;;;;;;37.15;26.33;;;;;;;;;;5037529;28;20466;-85
2022/02/21 00:59:21;;;;;;;38.03;27.38;;;;;;;;;;5037641;28;20021;-84
2022/02/21 01:01:47;;;;;;;41.20;27.48;;;;;;;;;;5037596;28;20021;-84
2022/02/21 01:04:13;;;;;;;41.80;28.50;;;;;;;;;;5036930;28;20061;-85
2022/02/21 01:06:39;;;;;;;42.33;28.63;;;;;;;;;;5037388;28;20025;-84
2022/02/21 01:09:05;;;;;;;43.95;28.38;;;;;;;;;;5036731;28;20099;-85
2022/02/21 01:11:31;;;;;;;44.72;29.50;;;;;;;;;;5037415;28;20032;-85
2022/02/21 01:17:01;;;;;;;48.58;30.73;;;;;;;;;;5037546;28;20048;-87
2022/02/21 01:19:27;;;;;;;50.97;34.20;;;;;;;;;;5037647;28;20029;-89
2022/02/21 01:21:53;;;;;;;47.90;31.00;;;;;;;;;;5037458;28;20034;-86
2022/02/21 01:24:19;;;;;;;45.97;30.73;;;;;;;;;;5037334;28;20112;-87
2022/02/21 01:26:45;;;;;;;42.15;28.85;;;;;;;;;;5037259;28;20400;-88
2022/02/21 01:29:11;;;;;;;45.38;30.45;;;;;;;;;;5037202;28;20029;-87
2022/02/21 01:31:37;;;;;;;126.13;54.72;;;;;;;;;;5037450;28;20037;-87
2022/02/21 01:34:03;;;;;;;110.35;52.90;;;;;;;;;;5037166;28;20049;-88
2022/02/21 01:36:30;;;;;;;62.28;35.58;;;;;;;;;;5036414;28;20038;-86
2022/02/21 01:38:56;;;;;;;50.40;30.33;;;;;;;;;;5037142;28;20407;-86
2022/02/21 01:41:22;;;;;;;47.65;30.00;;;;;;;;;;5037110;28;20428;-86
2022/02/21 01:43:48;;;;;;;47.75;29.38;;;;;;;;;;5036893;28;20030;-87
2022/02/21 01:46:15;;;;;;;46.75;30.60;;;;;;;;;;5037152;28;20029;-87
2022/02/21 01:48:42;;;;;;;46.10;29.67;;;;;;;;;;5037202;28;20022;-87
2022/02/21 01:51:08;;;;;;;48.00;29.85;;;;;;;;;;5037026;28;20040;-86
2022/02/21 01:53:34;;;;;;;44.03;30.33;;;;;;;;;;5037259;28;20071;-84
2022/02/21 01:56:00;;;;;;;43.00;29.90;;;;;;;;;;5036788;28;20304;-84
2022/02/21 01:58:26;;;;;;;45.85;29.95;;;;;;;;;;5036690;28;20025;-84
2022/02/21 02:00:52;;;;;;;47.00;31.02;;;;;;;;;;5037063;28;20322;-85
2022/02/21 02:03:18;;;;;;;46.15;29.60;;;;;;;;;;5037035;28;20057;-85
2022/02/21 02:05:45;;;;;;;44.17;30.30;;;;;;;;;;5039733;28;20395;-88
2022/02/21 02:08:11;;;;;;;40.35;28.38;;;;;;;;;;5040580;28;20106;-88
2022/02/21 02:10:37;;;;;;;46.97;30.60;;;;;;;;;;5040875;28;20022;-87
2022/02/21 02:16:07;;;;;;;48.38;30.77;;;;;;;;;;5040605;28;20032;-88
2022/02/21 02:18:33;;;;;;;53.85;34.20;;;;;;;;;;5039398;28;20116;-88
2022/02/21 02:20:59;;;;;;;200.75;87.07;;;;;;;;;;5040593;28;20022;-86
2022/02/21 02:23:25;;;;;;;154.38;77.68;;;;;;;;;;5039681;28;20037;-88
2022/02/21 02:25:51;;;;;;;80.25;49.67;;;;;;;;;;5040642;28;20029;-88
2022/02/21 02:31:21;;;;;;;53.08;32.60;;;;;;;;;;5040389;28;20083;-88
2022/02/21 02:33:47;;;;;;;50.25;32.72;;;;;;;;;;5039964;28;20030;-88
2022/02/21 02:36:13;;;;;;;47.17;30.90;;;;;;;;;;5040208;28;20025;-88
2022/02/21 02:38:40;;;;;;;45.20;31.00;;;;;;;;;;5038999;28;20029;-88
2022/02/21 02:41:10;;;;;;;52.72;33.38;;;;;;;;;;5039997;28;20025;-89
2022/02/21 02:49:43;;;;;;;54.00;34.78;;;;;;;;;;5040027;28;20036;-87
2022/02/21 02:52:11;;;;;;;53.90;34.47;;;;;;;;;;5038796;28;20068;-88
2022/02/21 02:54:37;;;;;;;52.67;35.10;;;;;;;;;;5039685;28;20022;-88
2022/02/21 02:57:03;;;;;;;52.10;34.53;;;;;;;;;;5039536;28;20167;-88
2022/02/21 03:02:33;;;;;;;54.72;33.70;;;;;;;;;;5039844;28;20037;-88
2022/02/21 03:04:59;;;;;;;57.47;35.30;;;;;;;;;;5039622;28;20045;-88
2022/02/21 03:07:25;;;;;;;55.67;36.63;;;;;;;;;;5038655;28;20083;-88
2022/02/21 03:09:51;;;;;;;62.70;39.28;;;;;;;;;;5039597;28;20092;-88
2022/02/21 03:12:17;;;;;;;67.82;42.88;;;;;;;;;;5038530;28;20354;-89
2022/02/21 03:14:43;;;;;;;64.88;41.35;;;;;;;;;;5038394;28;20427;-90
2022/02/21 03:17:09;;;;;;;70.20;43.65;;;;;;;;;;5039537;28;20049;-88
2022/02/21 03:19:35;;;;;;;65.25;40.67;;;;;;;;;;5038590;28;20033;-89
2022/02/21 03:22:03;;;;;;;69.32;40.35;;;;;;;;;;5039237;28;20096;-89
2022/02/21 03:24:29;;;;;;;66.18;40.30;;;;;;;;;;5039265;28;20348;-89
2022/02/21 03:26:55;;;;;;;64.90;41.10;;;;;;;;;;5039435;28;20022;-89
2022/02/21 03:29:21;;;;;;;65.93;39.97;;;;;;;;;;5038028;28;20036;-88
2022/02/21 03:31:47;;;;;;;65.35;38.05;;;;;;;;;;5039060;28;20085;-89
2022/02/21 03:34:13;;;;;;;62.83;38.22;;;;;;;;;;5039066;28;20025;-89
2022/02/21 03:36:39;;;;;;;62.70;36.72;;;;;;;;;;5038747;28;20033;-89
2022/02/21 03:39:05;;;;;;;58.85;37.50;;;;;;;;;;5039082;28;20104;-90
2022/02/21 03:41:34;;;;;;;58.45;36.47;;;;;;;;;;5039020;28;20049;-89
2022/02/21 03:44:00;;;;;;;60.67;36.00;;;;;;;;;;5038316;28;20331;-89
2022/02/21 03:46:27;;;;;;;61.42;36.33;;;;;;;;;;5038911;28;20392;-88
2022/02/21 03:48:53;;;;;;;59.45;34.72;;;;;;;;;;5038094;28;20065;-90
2022/02/21 03:51:19;;;;;;;61.72;37.33;;;;;;;;;;5037920;28;20184;-90
2022/02/21 03:53:45;;;;;;;58.00;36.95;;;;;;;;;;5038786;28;20034;-88
2022/02/21 03:56:11;;;;;;;59.28;34.85;;;;;;;;;;5038633;28;20351;-89
2022/02/21 03:58:37;;;;;;;56.13;34.42;;;;;;;;;;5038416;28;20052;-88
2022/02/21 04:01:03;;;;;;;56.88;33.70;;;;;;;;;;5038461;28;20104;-88
2022/02/21 04:03:29;;;;;;;57.05;34.42;;;;;;;;;;5038285;28;20399;-89
2022/02/21 04:05:55;;;;;;;56.70;35.92;;;;;;;;;;5038465;28;20113;-90
2022/02/21 04:08:21;;;;;;;55.33;35.53;;;;;;;;;;5038324;28;20072;-90
2022/02/21 04:10:47;;;;;;;54.40;33.67;;;;;;;;;;5038424;28;20030;-89
2022/02/21 04:13:13;;;;;;;96.57;58.33;;;;;;;;;;5038076;28;20025;-89
2022/02/21 04:15:39;;;;;;;88.50;54.17;;;;;;;;;;5038142;28;20026;-89
2022/02/21 04:18:05;;;;;;;58.85;36.83;;;;;;;;;;5037184;28;20068;-87
2022/02/21 04:20:31;;;;;;;48.65;32.53;;;;;;;;;;5038127;28;20021;-87
2022/02/21 04:22:58;;;;;;;54.65;33.92;;;;;;;;;;5038045;28;20407;-88
2022/02/21 04:25:24;;;;;;;51.97;34.10;;;;;;;;;;5038031;28;20121;-88
2022/02/21 04:27:51;;;;;;;52.13;32.50;;;;;;;;;;5037711;28;20061;-88
2022/02/21 04:30:18;;;;;;;52.08;32.75;;;;;;;;;;5037141;28;20034;-87
2022/02/21 04:32:46;;;;;;;49.58;31.55;;;;;;;;;;5037983;28;20422;-88
2022/02/21 04:35:12;;;;;;;52.33;31.38;;;;;;;;;;5036966;28;20044;-89
2022/02/21 04:37:39;;;;;;;49.88;31.23;;;;;;;;;;5038053;28;20021;-89
2022/02/21 04:40:06;;;;;;;45.72;30.67;;;;;;;;;;5037658;28;20030;-87
2022/02/21 04:42:32;;;;;;;48.47;30.63;;;;;;;;;;5036770;28;20030;-87
2022/02/21 04:44:58;;;;;;;48.05;30.60;;;;;;;;;;5037859;28;20025;-88
2022/02/21 04:47:24;;;;;;;45.67;30.42;;;;;;;;;;5037678;28;20430;-86
2022/02/21 04:49:50;;;;;;;46.13;29.70;;;;;;;;;;5037011;28;20033;-87
2022/02/21 04:52:16;;;;;;;48.38;30.45;;;;;;;;;;5037635;28;20032;-86
2022/02/21 04:54:42;;;;;;;51.22;30.00;;;;;;;;;;5037861;28;20028;-87
2022/02/21 04:57:09;;;;;;;46.83;30.38;;;;;;;;;;5036858;28;20033;-86
2022/02/21 04:59:35;;;;;;;45.28;29.67;;;;;;;;;;5036885;28;20065;-85
2022/02/21 05:02:01;;;;;;;44.10;28.35;;;;;;;;;;5037612;28;20029;-86
2022/02/21 05:04:28;;;;;;;50.20;30.83;;;;;;;;;;5037229;28;20053;-87
2022/02/21 05:06:54;;;;;;;50.30;31.98;;;;;;;;;;5037386;28;20046;-86
2022/02/21 05:09:20;;;;;;;46.03;29.80;;;;;;;;;;5036778;28;20041;-88
2022/02/21 05:11:46;;;;;;;54.00;33.17;;;;;;;;;;5036590;28;20026;-88
2022/02/21 05:14:12;;;;;;;65.82;37.58;;;;;;;;;;5036715;28;20036;-89
2022/02/21 05:16:38;;;;;;;70.88;42.75;;;;;;;;;;5029954;28;20041;-86
2022/02/21 05:19:04;;;;;;;61.45;41.20;;;;;;;;;;5029069;28;20048;-86
2022/02/21 05:21:31;;;;;;;143.65;78.63;;;;;;;;;;5032065;28;20030;-85
2022/02/21 05:23:57;;;;;;;228.70;90.47;;;;;;;;;;5032358;28;20022;-85
2022/02/21 05:26:26;;;;;;;239.40;100.28;;;;;;;;;;5036953;28;20022;-85
2022/02/21 05:29:29;;;;;;;250.73;106.00;;;;;;;;;;5037220;28;20017;-85
2022/02/21 05:31:55;;;;;;;;;;;;;;;;;;5034553;28;20489;-84
2022/02/21 05:34:22;;;;;;;248.75;88.28;;;;;;;;;;5026227;28;20004;-86
2022/02/21 05:36:48;;;;;;;284.80;99.88;;;;;;;;;;5017475;28;20109;-86
2022/02/21 05:39:14;;;;;;;333.88;111.10;;;;;;;;;;5018362;28;20096;-86
2022/02/21 05:41:40;;;;;;;214.38;74.68;;;;;;;;;;5020407;28;20021;-85
2022/02/21 05:44:06;;;;;;;97.60;45.85;;;;;;;;;;5021249;28;20022;-85
2022/02/21 05:46:32;;;;;;;79.43;41.90;;;;;;;;;;5020401;28;20022;-86
2022/02/21 05:48:58;;;;;;;72.38;38.80;;;;;;;;;;5021160;28;20025;-86
2022/02/21 05:51:24;;;;;;;61.90;36.75;;;;;;;;;;5021272;28;20033;-87
2022/02/21 05:53:50;;;;;;;67.55;38.90;;;;;;;;;;5021318;28;20105;-87
2022/02/21 05:56:16;;;;;;;69.40;37.72;;;;;;;;;;5021234;28;20030;-88
2022/02/21 05:58:42;;;;;;;61.92;34.28;;;;;;;;;;5020888;28;20304;-87
2022/02/21 06:01:08;;;;;;;64.00;35.15;;;;;;;;;;5024430;28;20054;-88
2022/02/21 06:03:35;;;;;;;83.88;38.38;;;;;;;;;;5032493;28;20029;-87
2022/02/21 06:06:01;;;;;;;93.55;37.03;;;;;;;;;;5039611;28;20312;-87
2022/02/21 06:08:28;;;;;;;63.90;37.88;;;;;;;;;;5022705;28;20350;-86
2022/02/21 06:10:55;;;;;;;70.53;43.35;;;;;;;;;;5019894;28;20076;-86
2022/02/21 06:13:33;;;;;;;70.95;40.22;;;;;;;;;;5020723;28;20053;-85
2022/02/21 06:15:59;;;;;;;87.13;44.47;;;;;;;;;;5025438;28;20072;-87
2022/02/21 06:18:25;;;;;;;84.10;44.10;;;;;;;;;;5020036;28;20038;-87
2022/02/21 06:20:52;;;;;;;83.53;44.72;;;;;;;;;;5020540;28;20021;-87
2022/02/21 06:23:18;;;;;;;85.53;45.05;;;;;;;;;;5039787;28;20030;-87
2022/02/21 06:25:44;;;;;;;86.05;48.08;;;;;;;;;;5040182;28;20017;-87
2022/02/21 06:28:11;;;;;;;84.85;44.78;;;;;;;;;;5040289;28;20033;-87
2022/02/21 06:30:37;;;;;;;85.60;46.60;;;;;;;;;;5040277;28;20025;-88
2022/02/21 06:33:03;;;;;;;89.43;48.20;;;;;;;;;;5039750;28;20075;-87
2022/02/21 06:35:29;;;;;;;91.90;51.80;;;;;;;;;;5040025;28;20035;-88
2022/02/21 06:37:57;;;;;;;88.35;50.60;;;;;;;;;;5039809;28;20080;-87
2022/02/21 06:40:24;;;;;;;87.05;49.97;;;;;;;;;;5039947;28;20057;-88
2022/02/21 06:42:50;;;;;;;87.28;48.08;;;;;;;;;;5040061;28;20115;-87
2022/02/21 06:45:16;;;;;;;82.75;47.17;;;;;;;;;;5034783;28;20033;-86
2022/02/21 06:47:43;;;;;;;73.13;42.15;;;;;;;;;;5027738;28;20443;-86
2022/02/21 06:50:09;;;;;;;67.93;40.13;;;;;;;;;;5029250;28;20052;-86
2022/02/21 06:52:35;;;;;;;62.55;36.08;;;;;;;;;;5027894;28;20030;-87
2022/02/21 06:55:01;;;;;;;58.08;35.38;;;;;;;;;;5019971;28;20030;-87
2022/02/21 06:57:28;;;;;;;62.58;35.92;;;;;;;;;;5024569;28;20026;-87
2022/02/21 06:59:54;;;;;;;60.05;36.55;;;;;;;;;;5033011;28;20030;-88
2022/02/21 07:02:20;;;;;;;60.50;35.55;;;;;;;;;;5037692;28;20053;-86
2022/02/21 07:04:46;;;;;;;59.30;34.42;;;;;;;;;;5038263;28;20025;-87
2022/02/21 07:07:13;;;;;;;57.92;34.35;;;;;;;;;;5039103;28;20051;-88
2022/02/21 07:09:39;;;;;;;57.13;35.22;;;;;;;;;;5039375;28;20030;-87
2022/02/21 07:12:05;;;;;;;55.33;33.72;;;;;;;;;;5039657;28;20026;-88
2022/02/21 07:14:31;;;;;;;55.97;33.95;;;;;;;;;;5038559;28;20442;-87
2022/02/21 07:16:57;;;;;;;65.85;39.85;;;;;;;;;;5039165;28;20403;-87
2022/02/21 07:19:24;;;;;;;67.40;38.47;;;;;;;;;;5039256;28;20025;-87
2022/02/21 07:21:50;;;;;;;60.22;37.35;;;;;;;;;;5039098;28;20121;-87
2022/02/21 07:24:16;;;;;;;60.22;37.33;;;;;;;;;;5028284;28;20033;-87
2022/02/21 07:26:42;;;;;;;59.67;34.60;;;;;;;;;;5019545;28;20151;-87
2022/02/21 07:29:09;;;;;;;59.13;35.35;;;;;;;;;;5019424;28;20022;-87
2022/02/21 07:31:35;;;;;;;57.58;34.40;;;;;;;;;;5018499;28;20018;-87
2022/02/21 07:34:02;;;;;;;58.13;34.92;;;;;;;;;;5018491;28;20056;-86
2022/02/21 07:36:28;;;;;;;56.50;34.05;;;;;;;;;;5019141;28;20109;-87
2022/02/21 07:38:54;;;;;;;57.50;34.92;;;;;;;;;;5019065;28;20030;-87
2022/02/21 07:41:21;;;;;;;53.72;32.53;;;;;;;;;;5019402;28;20029;-86
2022/02/21 07:43:47;;;;;;;56.20;32.63;;;;;;;;;;5018955;28;20021;-87
2022/02/21 07:46:13;;;;;;;55.15;33.13;;;;;;;;;;5018903;28;20479;-86
2022/02/21 07:48:39;;;;;;;53.85;30.58;;;;;;;;;;5018746;28;20064;-86
2022/02/21 07:51:06;;;;;;;54.88;31.15;;;;;;;;;;5017653;28;20030;-86
2022/02/21 07:53:32;;;;;;;55.17;31.85;;;;;;;;;;5018936;28;20096;-86
2022/02/21 07:55:58;;;;;;;56.97;32.72;;;;;;;;;;5018883;28;20026;-86
2022/02/21 07:58:25;;;;;;;53.17;31.13;;;;;;;;;;5018609;28;20026;-86
2022/02/21 08:00:51;;;;;;;48.30;30.55;;;;;;;;;;5018735;28;20423;-86
2022/02/21 08:03:17;;;;;;;52.28;30.83;;;;;;;;;;5017877;28;20033;-85
2022/02/21 08:05:43;;;;;;;42.55;27.55;;;;;;;;;;5017592;28;20029;-86
2022/02/21 08:08:09;;;;;;;44.42;26.80;;;;;;;;;;5017457;28;20088;-86
2022/02/21 08:10:36;;;;;;;44.38;27.05;;;;;;;;;;5018462;28;20412;-86
2022/02/21 08:13:02;;;;;;;41.17;24.70;;;;;;;;;;5018665;28;20479;-86
2022/02/21 08:15:28;;;;;;;45.63;28.45;;;;;;;;;;5018471;28;20033;-86
2022/02/21 08:17:55;;;;;;;39.10;24.33;;;;;;;;;;5018321;28;20026;-86
2022/02/21 08:20:22;;;;;;;41.60;24.95;;;;;;;;;;5017679;28;20030;-85
2022/02/21 08:22:49;;;;;;;38.50;23.00;;;;;;;;;;5018361;28;20404;-86
2022/02/21 08:25:15;;;;;;;36.70;22.27;;;;;;;;;;5018304;28;20508;-86
2022/02/21 08:27:42;;;;;;;34.05;22.52;;;;;;;;;;5017575;28;20416;-86
2022/02/21 08:30:09;;;;;;;37.45;22.42;;;;;;;;;;5018232;28;20049;-86
2022/02/21 08:32:35;;;;;;;37.58;23.38;;;;;;;;;;5017289;28;20068;-86
2022/02/21 08:35:01;;;;;;;36.72;21.98;;;;;;;;;;5018062;28;20029;-86
2022/02/21 08:37:27;;;;;;;38.45;23.67;;;;;;;;;;5018239;28;20413;-86
2022/02/21 08:39:54;;;;;;;33.92;21.90;;;;;;;;;;5017994;28;20435;-86
2022/02/21 08:42:20;;;;;;;32.35;19.08;;;;;;;;;;5018162;28;20037;-85
2022/02/21 08:44:46;;;;;;;34.08;21.30;;;;;;;;;;5017909;28;20026;-86
2022/02/21 08:47:14;;;;;;;29.63;19.80;;;;;;;;;;5017716;28;20022;-85
2022/02/21 08:49:41;;;;;;;29.48;18.92;;;;;;;;;;5017073;28;20041;-85
2022/02/21 08:52:07;;;;;;;32.65;19.98;;;;;;;;;;5027232;28;20026;-85
2022/02/21 08:54:35;;;;;;;33.67;21.20;;;;;;;;;;5033837;28;20041;-85
2022/02/21 08:57:02;;;;;;;37.17;23.63;;;;;;;;;;5037095;28;20045;-82
2022/02/21 08:59:28;;;;;;;33.35;19.40;;;;;;;;;;5037498;28;20301;-85
2022/02/21 09:01:54;;;;;;;36.80;18.80;;;;;;;;;;5036953;28;20025;-85
2022/02/21 09:04:20;;;;;;;30.42;17.92;;;;;;;;;;5037396;28;20120;-85
2022/02/21 09:06:47;;;;;;;59.15;29.88;;;;;;;;;;5036235;28;20037;-85
2022/02/21 09:09:13;;;;;;;65.32;33.30;;;;;;;;;;5037029;28;20029;-85
2022/02/21 09:11:39;;;;;;;29.80;18.30;;;;;;;;;;5037743;28;20017;-85
2022/02/21 09:14:23;;;;;;;31.10;19.17;;;;;;;;;;5038661;28;20033;-85
2022/02/21 09:16:50;;;;;;;26.40;17.42;;;;;;;;;;5041228;28;20033;-86
2022/02/21 09:19:16;;;;;;;33.28;17.50;;;;;;;;;;5041406;28;20048;-85
2022/02/21 09:21:42;;;;;;;34.45;17.55;;;;;;;;;;5041370;28;20022;-86
2022/02/21 09:24:08;;;;;;;28.23;17.40;;;;;;;;;;5040402;28;20145;-85
2022/02/21 09:26:34;;;;;;;29.42;16.77;;;;;;;;;;5029150;28;20033;-85
2022/02/21 09:29:00;;;;;;;25.95;17.02;;;;;;;;;;5021645;28;20034;-85
2022/02/21 09:31:26;;;;;;;34.28;16.48;;;;;;;;;;5021186;28;20411;-85
2022/02/21 09:33:52;;;;;;;24.17;15.68;;;;;;;;;;5021365;28;20037;-85
2022/02/21 09:36:18;;;;;;;24.13;15.02;;;;;;;;;;5034127;28;20044;-85
2022/02/21 09:38:45;;;;;;;23.20;14.68;;;;;;;;;;5041057;28;20037;-85
2022/02/21 09:41:11;;;;;;;30.70;16.55;;;;;;;;;;5041101;28;20029;-85
2022/02/21 09:43:38;;;;;;;31.45;15.82;;;;;;;;;;5040954;28;20018;-85
2022/02/21 09:46:05;;;;;;;24.02;14.98;;;;;;;;;;5040871;28;20056;-86
2022/02/21 09:48:32;;;;;;;25.88;15.25;;;;;;;;;;5036926;28;20064;-84
2022/02/21 09:51:00;;;;;;;24.02;14.20;;;;;;;;;;5030378;28;20022;-84
2022/02/21 09:53:27;;;;;;;22.17;13.65;;;;;;;;;;5029672;28;20033;-85
2022/02/21 09:55:53;;;;;;;23.80;14.25;;;;;;;;;;5028830;28;20034;-84
2022/02/21 09:58:20;;;;;;;18.40;12.80;;;;;;;;;;5034895;28;20026;-85
2022/02/21 10:00:46;;;;;;;17.17;11.60;;;;;;;;;;5039812;28;20075;-85
2022/02/21 10:03:12;;;;;;;23.00;13.95;;;;;;;;;;5039540;28;20136;-85
2022/02/21 10:05:38;;;;;;;19.45;12.60;;;;;;;;;;5039616;28;20099;-85
2022/02/21 10:08:07;;;;;;;18.15;12.27;;;;;;;;;;5033470;28;20045;-85
2022/02/21 10:10:35;;;;;;;18.80;11.85;;;;;;;;;;5030626;28;20324;-84
2022/02/21 10:13:02;;;;;;;17.00;10.68;;;;;;;;;;5028863;28;20025;-85
2022/02/21 10:15:29;;;;;;;17.73;11.48;;;;;;;;;;5035357;28;20059;-84
2022/02/21 10:18:14;;;;;;;20.42;13.07;;;;;;;;;;5040173;28;20033;-85
2022/02/21 10:20:59;;;;;;;15.98;10.43;;;;;;;;;;5040494;28;20029;-85
2022/02/21 10:23:30;;;;;;;14.65;10.25;;;;;;;;;;5040092;28;20100;-86
2022/02/21 10:25:56;;;;;;;17.00;11.02;;;;;;;;;;5039488;28;20025;-85
2022/02/21 10:28:26;;;;;;;16.25;11.05;;;;;;;;;;5039788;28;20032;-85
2022/02/21 10:31:08;;;;;;;17.42;12.02;;;;;;;;;;5039942;28;20109;-85
2022/02/21 10:33:34;;;;;;;22.73;11.63;;;;;;;;;;5039089;28;20112;-85
2022/02/21 10:36:00;;;;;;;16.13;9.93;;;;;;;;;;5039842;28;20057;-85
2022/02/21 10:38:39;;;;;;;18.55;10.77;;;;;;;;;;5036258;28;20038;-84
2022/02/21 10:41:08;;;;;;;15.70;11.57;;;;;;;;;;5038395;28;20527;-85
2022/02/21 10:43:34;;;;;;;20.08;11.48;;;;;;;;;;5040074;28;20009;-85
2022/02/21 10:46:12;;;;;;;16.55;10.40;;;;;;;;;;5039999;28;20022;-85
2022/02/21 10:48:42;;;;;;;16.33;10.55;;;;;;;;;;5039803;28;20132;-85
2022/02/21 10:51:08;;;;;;;18.73;9.95;;;;;;;;;;5038745;28;20416;-85
2022/02/21 10:53:39;;;;;;;12.98;8.85;;;;;;;;;;5030408;28;20442;-85
2022/02/21 10:56:05;;;;;;;25.67;11.38;;;;;;;;;;5031323;28;20486;-85
2022/02/21 10:58:32;;;;;;;22.80;12.35;;;;;;;;;;5027951;28;20030;-85
2022/02/21 11:00:58;;;;;;;13.52;8.88;;;;;;;;;;5039469;28;20096;-85
2022/02/21 11:03:29;;;;;;;17.95;10.13;;;;;;;;;;5035631;28;20146;-84
2022/02/21 11:05:56;;;;;;;12.20;8.15;;;;;;;;;;5030667;28;20021;-87
2022/02/21 11:08:23;;;;;;;13.02;8.55;;;;;;;;;;5039098;28;20052;-85
2022/02/21 11:10:59;;;;;;;17.08;8.45;;;;;;;;;;5038323;28;20029;-85
2022/02/21 11:13:27;;;;;;;12.98;9.63;;;;;;;;;;5039416;28;20309;-85
2022/02/21 11:15:54;;;;;;;14.70;10.10;;;;;;;;;;5039267;28;20379;-85
2022/02/21 11:18:21;;;;;;;19.98;9.55;;;;;;;;;;5039009;28;20109;-85
2022/02/21 11:20:47;;;;;;;19.15;9.75;;;;;;;;;;5039119;28;20021;-85
2022/02/21 11:23:13;;;;;;;16.42;9.57;;;;;;;;;;5030360;28;20053;-85
2022/02/21 11:25:47;;;;;;;8.65;5.05;;;;;;;;;;5023182;28;20030;-85
2022/02/21 11:28:22;;;;;;;21.00;7.90;;;;;;;;;;5019305;28;20026;-86
2022/02/21 11:30:50;;;;;;;10.82;5.50;;;;;;;;;;5018049;28;20034;-85
2022/02/21 11:33:18;;;;;;;16.55;6.53;;;;;;;;;;5018445;28;20038;-85
2022/02/21 11:36:03;;;;;;;11.65;5.90;;;;;;;;;;5018938;28;20033;-85
2022/02/21 11:38:29;;;;;;;10.82;4.70;;;;;;;;;;5017298;28;20037;-85
2022/02/21 11:40:57;;;;;;;10.07;5.35;;;;;;;;;;5019121;28;20026;-85
2022/02/21 11:43:35;;;;;;;11.57;6.00;;;;;;;;;;5019024;28;20018;-86
2022/02/21 11:46:03;;;;;;;8.25;4.45;;;;;;;;;;5018920;28;20049;-85
2022/02/21 11:48:48;;;;;;;9.57;4.30;;;;;;;;;;5018863;28;20026;-85
2022/02/21 11:51:41;;;;;;;15.65;7.05;;;;;;;;;;5018717;28;20113;-85
2022/02/21 11:54:10;;;;;;;13.15;5.78;;;;;;;;;;5017495;28;20029;-85
2022/02/21 11:56:48;;;;;;;9.73;4.38;;;;;;;;;;5018800;28;20420;-85
2022/02/21 11:59:23;;;;;;;10.25;4.88;;;;;;;;;;5018690;28;20025;-86
2022/02/21 12:01:52;;;;;;;10.75;3.95;;;;;;;;;;5018576;28;20029;-86
2022/02/21 12:04:21;;;;;;;7.80;3.55;;;;;;;;;;5018576;28;20026;-86
2022/02/21 12:06:51;;;;;;;7.82;3.90;;;;;;;;;;5018320;28;20022;-86
2022/02/21 12:09:17;;;;;;;7.07;4.05;;;;;;;;;;5017891;28;20499;-85
2022/02/21 12:11:43;;;;;;;10.02;5.50;;;;;;;;;;5018433;28;20400;-86
2022/02/21 12:14:09;;;;;;;9.80;4.40;;;;;;;;;;5017662;28;20030;-86
2022/02/21 12:16:55;;;;;;;8.38;3.58;;;;;;;;;;5018373;28;20396;-85
2022/02/21 12:19:28;;;;;;;11.13;5.15;;;;;;;;;;5017610;28;20041;-86
2022/02/21 12:22:08;;;;;;;11.38;5.13;;;;;;;;;;5018407;28;20392;-86
2022/02/21 12:24:34;;;;;;;15.77;6.50;;;;;;;;;;5018596;28;20025;-85
2022/02/21 12:27:15;;;;;;;12.38;6.18;;;;;;;;;;5018225;28;20419;-86
2022/02/21 12:29:41;;;;;;;9.90;5.22;;;;;;;;;;5017357;28;20085;-86
2022/02/21 12:32:15;;;;;;;11.52;5.05;;;;;;;;;;5017906;28;20022;-85
2022/02/21 12:34:43;;;;;;;13.05;6.07;;;;;;;;;;5017108;28;20018;-86
2022/02/21 12:37:13;;;;;;;8.35;5.38;;;;;;;;;;5017967;28;20478;-85
2022/02/21 12:39:40;;;;;;;15.85;7.53;;;;;;;;;;5018124;28;20042;-86
2022/02/21 12:42:06;;;;;;;22.27;8.93;;;;;;;;;;5017132;28;20030;-85
2022/02/21 12:44:32;;;;;;;9.85;5.70;;;;;;;;;;5017697;28;20080;-86
2022/02/21 12:47:01;;;;;;;9.82;5.40;;;;;;;;;;5017898;28;20022;-86
2022/02/21 12:49:29;;;;;;;13.43;7.88;;;;;;;;;;5017881;28;20025;-86
2022/02/21 12:51:57;;;;;;;18.35;10.93;;;;;;;;;;5018089;28;20072;-86
2022/02/21 12:54:23;;;;;;;14.45;7.75;;;;;;;;;;5017823;28;20029;-86
2022/02/21 12:56:53;;;;;;;14.40;7.88;;;;;;;;;;5017810;28;20025;-85
2022/02/21 12:59:22;;;;;;;16.25;7.65;;;;;;;;;;5017248;28;20133;-86
2022/02/21 13:01:49;;;;;;;23.35;12.85;;;;;;;;;;5017527;28;20072;-86
2022/02/21 13:04:15;;;;;;;23.42;15.07;;;;;;;;;;5017840;28;20026;-88
2022/02/21 13:06:42;;;;;;;12.05;6.45;;;;;;;;;;5017668;28;20404;-88
2022/02/21 13:09:10;;;;;;;11.30;6.85;;;;;;;;;;5017834;28;20049;-88
2022/02/21 13:11:38;;;;;;;19.40;11.30;;;;;;;;;;5016827;28;20112;-87
2022/02/21 13:14:04;;;;;;;36.28;17.58;;;;;;;;;;5017536;28;20068;-86
2022/02/21 13:16:32;;;;;;;33.83;19.67;;;;;;;;;;5017673;28;20404;-87
2022/02/21 13:19:02;;;;;;;28.55;16.25;;;;;;;;;;5017697;28;20365;-86
2022/02/21 13:21:32;;;;;;;19.73;12.68;;;;;;;;;;5017727;28;20018;-87
2022/02/21 13:23:59;;;;;;;34.30;16.80;;;;;;;;;;5017604;28;20072;-87
2022/02/21 13:26:25;;;;;;;51.65;22.58;;;;;;;;;;5017764;28;20413;-87
2022/02/21 13:28:52;;;;;;;44.83;20.42;;;;;;;;;;5017535;28;20026;-86
2022/02/21 13:31:18;;;;;;;26.73;13.85;;;;;;;;;;5017498;28;20026;-89
2022/02/21 13:33:47;;;;;;;17.70;9.48;;;;;;;;;;5016743;28;20034;-89
2022/02/21 13:36:13;;;;;;;35.47;21.10;;;;;;;;;;5017250;28;20409;-89
2022/02/21 13:38:51;;;;;;;35.92;21.80;;;;;;;;;;5017637;28;20038;-88
2022/02/21 13:41:17;;;;;;;32.45;19.38;;;;;;;;;;5017486;28;20486;-87
2022/02/21 13:43:43;;;;;;;60.47;32.30;;;;;;;;;;5016733;28;20323;-88
2022/02/21 13:46:09;;;;;;;148.55;83.72;;;;;;;;;;5020049;28;20022;-88
2022/02/21 13:48:49;;;;;;;35.35;19.30;;;;;;;;;;5024740;28;20202;-89
2022/02/21 13:51:20;;;;;;;22.10;9.18;;;;;;;;;;5037255;28;20034;-88
2022/02/21 13:53:47;;;;;;;30.83;15.93;;;;;;;;;;5037040;28;20033;-89
2022/02/21 13:56:16;;;;;;;41.38;22.15;;;;;;;;;;5037047;28;20041;-89
2022/02/21 13:58:43;;;;;;;32.30;18.42;;;;;;;;;;5037049;28;20021;-88
2022/02/21 14:01:10;;;;;;;28.95;16.77;;;;;;;;;;5038092;28;20067;-88
2022/02/21 14:03:40;;;;;;;24.38;15.75;;;;;;;;;;5040807;28;20029;-88
2022/02/21 14:06:07;;;;;;;24.70;13.25;;;;;;;;;;5040606;28;20024;-88
2022/02/21 14:08:41;;;;;;;12.57;8.07;;;;;;;;;;5040381;28;20087;-89
2022/02/21 14:11:07;;;;;;;11.20;7.68;;;;;;;;;;5040877;28;20040;-88
2022/02/21 14:13:34;;;;;;;16.40;10.30;;;;;;;;;;5040771;28;20131;-88
2022/02/21 14:16:00;;;;;;;23.27;11.75;;;;;;;;;;5040642;28;20033;-89
2022/02/21 14:18:27;;;;;;;28.25;13.30;;;;;;;;;;5039420;28;20317;-88
2022/02/21 14:20:53;;;;;;;26.52;13.82;;;;;;;;;;5040628;28;20047;-89
2022/02/21 14:23:20;;;;;;;83.32;33.13;;;;;;;;;;5039930;28;20036;-89
2022/02/21 14:25:47;;;;;;;61.97;28.35;;;;;;;;;;5040483;28;20309;-89
2022/02/21 14:28:13;;;;;;;71.32;29.38;;;;;;;;;;5040523;28;20025;-90
2022/02/21 14:30:39;;;;;;;104.50;28.40;;;;;;;;;;5039084;28;20063;-88
2022/02/21 14:33:06;;;;;;;73.43;27.15;;;;;;;;;;5040142;28;20026;-89
2022/02/21 14:35:32;;;;;;;108.43;34.58;;;;;;;;;;5040100;28;20419;-88
2022/02/21 14:37:59;;;;;;;99.55;31.85;;;;;;;;;;5040028;28;20033;-88